sensor_id;sensor_type;location;lat;lon;timestamp;pressure;altitude;pressure_sealevel;temperature;humidity
6530;BME280;3298;42.688;23.366;2023-02-15T00:00:16;51725.28;;;-145.06;68.44
6530;BME280;3298;42.688;23.366;2023-02-15T00:02:43;51758.03;;;-145.06;68.33
6530;BME280;3298;42.688;23.366;2023-02-15T00:05:10;51723.22;;;-145.06;68.67
6530;BME280;3298;42.688;23.366;2023-02-15T00:07:38;51721.19;;;-145.06;68.43
6530;BME280;3298;42.688;23.366;2023-02-15T00:10:07;51708.91;;;-145.06;67.98
6530;BME280;3298;42.688;23.366;2023-02-15T00:12:34;51723.22;;;-145.06;68.21
6530;BME280;3298;42.688;23.366;2023-02-15T00:15:00;51731.41;;;-145.06;68.56
6530;BME280;3298;42.688;23.366;2023-02-15T00:17:27;51747.78;;;-145.06;69.23
6530;BME280;3298;42.688;23.366;2023-02-15T00:19:54;51727.31;;;-145.06;69.47
6530;BME280;3298;42.688;23.366;2023-02-15T00:22:21;51739.59;;;-145.06;69.78
6530;BME280;3298;42.688;23.366;2023-02-15T00:24:50;51715.03;;;-145.06;70.13
6530;BME280;3298;42.688;23.366;2023-02-15T00:27:16;51755.97;;;-145.06;70.20
6530;BME280;3298;42.688;23.366;2023-02-15T00:29:43;51733.47;;;-145.06;69.91
6530;BME280;3298;42.688;23.366;2023-02-15T00:32:10;51751.88;;;-145.06;69.59
6530;BME280;3298;42.688;23.366;2023-02-15T00:34:37;51753.94;;;-145.06;69.65
6530;BME280;3298;42.688;23.366;2023-02-15T00:37:03;51758.03;;;-145.06;70.63
6530;BME280;3298;42.688;23.366;2023-02-15T00:39:30;51741.66;;;-145.06;70.24
6530;BME280;3298;42.688;23.366;2023-02-15T00:41:58;51749.84;;;-145.06;70.22
6530;BME280;3298;42.688;23.366;2023-02-15T00:44:25;51755.97;;;-145.06;70.06
6530;BME280;3298;42.688;23.366;2023-02-15T00:46:52;51733.47;;;-145.06;69.78
6530;BME280;3298;42.688;23.366;2023-02-15T00:49:19;51739.59;;;-145.06;69.97
6530;BME280;3298;42.688;23.366;2023-02-15T00:51:45;51721.19;;;-145.06;70.01
6530;BME280;3298;42.688;23.366;2023-02-15T00:54:12;51739.59;;;-145.06;69.69
6530;BME280;3298;42.688;23.366;2023-02-15T00:56:39;51721.19;;;-145.06;69.75
6530;BME280;3298;42.688;23.366;2023-02-15T00:59:08;51770.31;;;-145.06;69.72
6530;BME280;3298;42.688;23.366;2023-02-15T01:01:35;51743.69;;;-145.06;70.12
6530;BME280;3298;42.688;23.366;2023-02-15T01:04:02;51737.56;;;-145.06;69.59
6530;BME280;3298;42.688;23.366;2023-02-15T01:06:28;51725.28;;;-145.06;69.67
6530;BME280;3298;42.688;23.366;2023-02-15T01:08:55;51745.75;;;-145.06;69.84
6530;BME280;3298;42.688;23.366;2023-02-15T01:11:24;51739.59;;;-145.06;70.23
6530;BME280;3298;42.688;23.366;2023-02-15T01:13:52;51749.84;;;-145.06;70.12
6530;BME280;3298;42.688;23.366;2023-02-15T01:16:21;51735.50;;;-145.06;70.15
6530;BME280;3298;42.688;23.366;2023-02-15T01:18:49;51741.66;;;-145.06;69.91
6530;BME280;3298;42.688;23.366;2023-02-15T01:21:18;51721.19;;;-145.06;70.12
6530;BME280;3298;42.688;23.366;2023-02-15T01:23:45;51727.31;;;-145.06;69.83
6530;BME280;3298;42.688;23.366;2023-02-15T01:26:13;51741.66;;;-145.06;70.12
6530;BME280;3298;42.688;23.366;2023-02-15T01:28:40;51717.09;;;-145.06;70.12
6530;BME280;3298;42.688;23.366;2023-02-15T01:31:07;51739.59;;;-145.06;70.32
6530;BME280;3298;42.688;23.366;2023-02-15T01:33:36;51723.22;;;-145.06;70.65
6530;BME280;3298;42.688;23.366;2023-02-15T01:36:04;51733.47;;;-145.06;70.57
6530;BME280;3298;42.688;23.366;2023-02-15T01:38:31;51741.66;;;-145.06;70.75
6530;BME280;3298;42.688;23.366;2023-02-15T01:40:57;51749.84;;;-145.06;70.35
6530;BME280;3298;42.688;23.366;2023-02-15T01:43:47;51747.78;;;-145.06;71.37
6530;BME280;3298;42.688;23.366;2023-02-15T01:46:16;51737.56;;;-145.06;71.34
6530;BME280;3298;42.688;23.366;2023-02-15T01:48:47;51766.22;;;-145.06;71.12
6530;BME280;3298;42.688;23.366;2023-02-15T01:51:17;51745.75;;;-145.06;71.16
6530;BME280;3298;42.688;23.366;2023-02-15T01:53:50;51753.94;;;-145.06;71.53
6530;BME280;3298;42.688;23.366;2023-02-15T01:56:21;51729.38;;;-145.06;71.94
6530;BME280;3298;42.688;23.366;2023-02-15T01:58:49;51745.75;;;-145.06;72.15
6530;BME280;3298;42.688;23.366;2023-02-15T02:01:18;51762.13;;;-145.06;72.02
6530;BME280;3298;42.688;23.366;2023-02-15T02:03:53;51725.28;;;-145.06;72.09
6530;BME280;3298;42.688;23.366;2023-02-15T02:06:23;51766.22;;;-145.06;71.71
6530;BME280;3298;42.688;23.366;2023-02-15T02:08:50;51760.06;;;-145.06;72.34
6530;BME280;3298;42.688;23.366;2023-02-15T02:11:18;51745.75;;;-145.06;71.86
6530;BME280;3298;42.688;23.366;2023-02-15T02:13:45;51733.47;;;-145.06;72.21
6530;BME280;3298;42.688;23.366;2023-02-15T02:16:17;51731.41;;;-145.06;72.27
6530;BME280;3298;42.688;23.366;2023-02-15T02:18:58;51745.75;;;-145.06;72.14
6530;BME280;3298;42.688;23.366;2023-02-15T02:21:51;51741.66;;;-145.06;72.10
6530;BME280;3298;42.688;23.366;2023-02-15T02:24:43;51741.66;;;-145.06;71.98
6530;BME280;3298;42.688;23.366;2023-02-15T02:27:22;51741.66;;;-145.06;72.25
6530;BME280;3298;42.688;23.366;2023-02-15T02:33:41;51745.75;;;-145.06;71.67
6530;BME280;3298;42.688;23.366;2023-02-15T02:36:21;51755.97;;;-145.06;72.05
6530;BME280;3298;42.688;23.366;2023-02-15T02:39:00;51745.75;;;-145.06;71.71
6530;BME280;3298;42.688;23.366;2023-02-15T02:41:32;51741.66;;;-145.06;71.81
6530;BME280;3298;42.688;23.366;2023-02-15T02:44:10;51719.13;;;-145.06;72.39
6530;BME280;3298;42.688;23.366;2023-02-15T02:46:46;51733.47;;;-145.06;72.32
6530;BME280;3298;42.688;23.366;2023-02-15T02:49:15;51741.66;;;-145.06;71.80
6530;BME280;3298;42.688;23.366;2023-02-15T02:51:42;51731.41;;;-145.06;71.67
6530;BME280;3298;42.688;23.366;2023-02-15T02:54:09;51735.50;;;-145.06;72.02
6530;BME280;3298;42.688;23.366;2023-02-15T02:56:38;51760.06;;;-145.06;72.23
6530;BME280;3298;42.688;23.366;2023-02-15T02:59:12;51745.75;;;-145.06;72.34
6530;BME280;3298;42.688;23.366;2023-02-15T03:01:45;51735.50;;;-145.06;72.65
6530;BME280;3298;42.688;23.366;2023-02-15T03:04:19;51747.78;;;-145.06;72.50
6530;BME280;3298;42.688;23.366;2023-02-15T03:06:50;51745.75;;;-145.06;72.66
6530;BME280;3298;42.688;23.366;2023-02-15T03:09:25;51741.66;;;-145.06;72.80
6530;BME280;3298;42.688;23.366;2023-02-15T03:12:00;51758.03;;;-145.06;72.95
6530;BME280;3298;42.688;23.366;2023-02-15T03:14:28;51753.94;;;-145.06;72.65
6530;BME280;3298;42.688;23.366;2023-02-15T03:16:55;51749.84;;;-145.06;72.68
6530;BME280;3298;42.688;23.366;2023-02-15T03:19:26;51768.25;;;-145.06;72.61
6530;BME280;3298;42.688;23.366;2023-02-15T03:21:56;51758.03;;;-145.06;72.60
6530;BME280;3298;42.688;23.366;2023-02-15T03:24:33;51737.56;;;-145.06;72.65
6530;BME280;3298;42.688;23.366;2023-02-15T03:27:03;51762.13;;;-145.06;72.45
6530;BME280;3298;42.688;23.366;2023-02-15T03:29:31;51766.22;;;-145.06;72.81
6530;BME280;3298;42.688;23.366;2023-02-15T03:32:00;51723.22;;;-145.06;72.58
6530;BME280;3298;42.688;23.366;2023-02-15T03:34:30;51739.59;;;-145.06;72.80
6530;BME280;3298;42.688;23.366;2023-02-15T03:37:00;51745.75;;;-145.06;72.56
6530;BME280;3298;42.688;23.366;2023-02-15T03:39:32;51719.13;;;-145.06;72.51
6530;BME280;3298;42.688;23.366;2023-02-15T03:42:07;51731.41;;;-145.06;72.63
6530;BME280;3298;42.688;23.366;2023-02-15T03:44:41;51778.50;;;-145.06;72.81
6530;BME280;3298;42.688;23.366;2023-02-15T03:47:13;51739.59;;;-145.06;73.23
6530;BME280;3298;42.688;23.366;2023-02-15T03:49:45;51741.66;;;-145.06;73.35
6530;BME280;3298;42.688;23.366;2023-02-15T03:52:16;51733.47;;;-145.06;73.26
6530;BME280;3298;42.688;23.366;2023-02-15T03:54:43;51741.66;;;-145.06;73.35
6530;BME280;3298;42.688;23.366;2023-02-15T03:57:14;51764.16;;;-145.06;73.20
6530;BME280;3298;42.688;23.366;2023-02-15T03:59:58;51749.84;;;-145.06;72.71
6530;BME280;3298;42.688;23.366;2023-02-15T04:02:51;51737.56;;;-145.06;72.75
6530;BME280;3298;42.688;23.366;2023-02-15T04:05:21;51733.47;;;-145.06;72.50
6530;BME280;3298;42.688;23.366;2023-02-15T04:07:48;51723.22;;;-145.06;72.33
6530;BME280;3298;42.688;23.366;2023-02-15T04:10:15;51725.28;;;-145.06;72.57
6530;BME280;3298;42.688;23.366;2023-02-15T04:12:58;51737.56;;;-145.06;72.29
6530;BME280;3298;42.688;23.366;2023-02-15T04:15:25;51772.34;;;-145.06;71.99
6530;BME280;3298;42.688;23.366;2023-02-15T04:18:09;51743.69;;;-145.06;71.87
6530;BME280;3298;42.688;23.366;2023-02-15T04:20:37;51755.97;;;-145.06;71.53
6530;BME280;3298;42.688;23.366;2023-02-15T04:23:22;51758.03;;;-145.06;72.10
6530;BME280;3298;42.688;23.366;2023-02-15T04:26:06;51743.69;;;-145.06;71.48
6530;BME280;3298;42.688;23.366;2023-02-15T04:28:32;51745.75;;;-145.06;71.34
6530;BME280;3298;42.688;23.366;2023-02-15T04:30:59;51758.03;;;-145.06;71.00
6530;BME280;3298;42.688;23.366;2023-02-15T04:33:26;51741.66;;;-145.06;70.95
6530;BME280;3298;42.688;23.366;2023-02-15T04:35:54;51735.50;;;-145.06;71.16
6530;BME280;3298;42.688;23.366;2023-02-15T04:38:21;51747.78;;;-145.06;70.83
6530;BME280;3298;42.688;23.366;2023-02-15T04:40:50;51745.75;;;-145.06;71.07
6530;BME280;3298;42.688;23.366;2023-02-15T04:43:17;51758.03;;;-145.06;70.43
6530;BME280;3298;42.688;23.366;2023-02-15T04:45:48;51741.66;;;-145.06;70.45
6530;BME280;3298;42.688;23.366;2023-02-15T04:48:15;51729.38;;;-145.06;70.16
6530;BME280;3298;42.688;23.366;2023-02-15T04:50:42;51772.34;;;-145.06;70.35
6530;BME280;3298;42.688;23.366;2023-02-15T04:53:11;51739.59;;;-145.06;70.28
6530;BME280;3298;42.688;23.366;2023-02-15T04:55:38;51749.84;;;-145.06;70.59
6530;BME280;3298;42.688;23.366;2023-02-15T04:58:04;51749.84;;;-145.06;70.66
6530;BME280;3298;42.688;23.366;2023-02-15T05:00:31;51737.56;;;-145.06;70.64
6530;BME280;3298;42.688;23.366;2023-02-15T05:02:58;51741.66;;;-145.06;70.31
6530;BME280;3298;42.688;23.366;2023-02-15T05:05:25;51739.59;;;-145.06;69.88
6530;BME280;3298;42.688;23.366;2023-02-15T05:07:52;51766.22;;;-145.06;70.12
6530;BME280;3298;42.688;23.366;2023-02-15T05:10:20;51755.97;;;-145.06;70.60
6530;BME280;3298;42.688;23.366;2023-02-15T05:12:47;51758.03;;;-145.06;70.23
6530;BME280;3298;42.688;23.366;2023-02-15T05:15:14;51723.22;;;-145.06;70.30
6530;BME280;3298;42.688;23.366;2023-02-15T05:17:41;51717.09;;;-145.06;70.83
6530;BME280;3298;42.688;23.366;2023-02-15T05:20:08;51749.84;;;-145.06;70.48
6530;BME280;3298;42.688;23.366;2023-02-15T05:22:35;51755.97;;;-145.06;70.53
6530;BME280;3298;42.688;23.366;2023-02-15T05:25:02;51766.22;;;-145.06;70.37
6530;BME280;3298;42.688;23.366;2023-02-15T05:27:48;51776.44;;;-145.06;69.88
6530;BME280;3298;42.688;23.366;2023-02-15T05:30:32;51753.94;;;-145.06;69.72
6530;BME280;3298;42.688;23.366;2023-02-15T05:32:59;51739.59;;;-145.06;69.93
6530;BME280;3298;42.688;23.366;2023-02-15T05:35:25;51733.47;;;-145.06;69.70
6530;BME280;3298;42.688;23.366;2023-02-15T05:37:52;51739.59;;;-145.06;69.91
6530;BME280;3298;42.688;23.366;2023-02-15T05:40:19;51745.75;;;-145.06;69.88
6530;BME280;3298;42.688;23.366;2023-02-15T05:42:47;51768.25;;;-145.06;69.29
6530;BME280;3298;42.688;23.366;2023-02-15T05:45:14;51731.41;;;-145.06;69.11
6530;BME280;3298;42.688;23.366;2023-02-15T05:47:41;51727.31;;;-145.06;69.08
6530;BME280;3298;42.688;23.366;2023-02-15T05:50:09;51745.75;;;-145.06;69.16
6530;BME280;3298;42.688;23.366;2023-02-15T05:52:36;51735.50;;;-145.06;69.13
6530;BME280;3298;42.688;23.366;2023-02-15T05:55:04;51743.69;;;-145.06;69.23
6530;BME280;3298;42.688;23.366;2023-02-15T05:57:31;51749.84;;;-145.06;69.08
6530;BME280;3298;42.688;23.366;2023-02-15T05:59:59;51758.03;;;-145.06;69.17
6530;BME280;3298;42.688;23.366;2023-02-15T06:02:26;51778.50;;;-145.06;68.63
6530;BME280;3298;42.688;23.366;2023-02-15T06:04:53;51733.47;;;-145.06;68.36
6530;BME280;3298;42.688;23.366;2023-02-15T06:07:19;51753.94;;;-145.06;68.37
6530;BME280;3298;42.688;23.366;2023-02-15T06:09:46;51725.28;;;-145.06;68.39
6530;BME280;3298;42.688;23.366;2023-02-15T06:12:13;51739.59;;;-145.06;68.29
6530;BME280;3298;42.688;23.366;2023-02-15T06:14:40;51790.78;;;-145.06;68.31
6530;BME280;3298;42.688;23.366;2023-02-15T06:17:08;51741.66;;;-145.06;68.37
6530;BME280;3298;42.688;23.366;2023-02-15T06:19:35;51745.75;;;-145.06;68.04
6530;BME280;3298;42.688;23.366;2023-02-15T06:22:01;51753.94;;;-145.06;67.47
6530;BME280;3298;42.688;23.366;2023-02-15T06:24:28;51725.28;;;-145.06;67.49
6530;BME280;3298;42.688;23.366;2023-02-15T06:26:55;51755.97;;;-145.06;67.53
6530;BME280;3298;42.688;23.366;2023-02-15T06:29:22;51772.34;;;-145.06;67.32
6530;BME280;3298;42.688;23.366;2023-02-15T06:31:48;51745.75;;;-145.06;66.78
6530;BME280;3298;42.688;23.366;2023-02-15T06:34:17;51743.69;;;-145.06;67.06
6530;BME280;3298;42.688;23.366;2023-02-15T06:36:43;51735.50;;;-145.06;66.78
6530;BME280;3298;42.688;23.366;2023-02-15T06:39:10;51758.03;;;-145.06;66.70
6530;BME280;3298;42.688;23.366;2023-02-15T06:41:37;51776.44;;;-145.06;66.27
6530;BME280;3298;42.688;23.366;2023-02-15T06:44:04;51762.13;;;-145.06;66.56
6530;BME280;3298;42.688;23.366;2023-02-15T06:46:31;51733.47;;;-145.06;66.55
6530;BME280;3298;42.688;23.366;2023-02-15T06:48:57;51762.13;;;-145.06;65.94
6530;BME280;3298;42.688;23.366;2023-02-15T06:51:25;51749.84;;;-145.06;66.28
6530;BME280;3298;42.688;23.366;2023-02-15T06:53:52;51733.47;;;-145.06;65.44
6530;BME280;3298;42.688;23.366;2023-02-15T06:56:19;51729.38;;;-145.06;65.23
6530;BME280;3298;42.688;23.366;2023-02-15T06:58:46;51751.88;;;-145.06;65.38
6530;BME280;3298;42.688;23.366;2023-02-15T07:01:14;51745.75;;;-145.06;65.14
6530;BME280;3298;42.688;23.366;2023-02-15T07:03:41;51737.56;;;-145.06;64.94
6530;BME280;3298;42.688;23.366;2023-02-15T07:06:08;51713.00;;;-145.06;64.50
6530;BME280;3298;42.688;23.366;2023-02-15T07:08:38;51753.94;;;-145.06;63.41
6530;BME280;3298;42.688;23.366;2023-02-15T07:11:06;51729.38;;;-145.06;63.06
6530;BME280;3298;42.688;23.366;2023-02-15T07:13:50;51758.03;;;-145.06;62.95
6530;BME280;3298;42.688;23.366;2023-02-15T07:16:18;51745.75;;;-145.06;63.01
6530;BME280;3298;42.688;23.366;2023-02-15T07:18:45;51741.66;;;-145.06;62.91
6530;BME280;3298;42.688;23.366;2023-02-15T07:21:12;51727.31;;;-145.06;62.70
6530;BME280;3298;42.688;23.366;2023-02-15T07:23:40;51733.47;;;-145.06;61.72
6530;BME280;3298;42.688;23.366;2023-02-15T07:26:07;51739.59;;;-145.06;61.65
6530;BME280;3298;42.688;23.366;2023-02-15T07:28:34;51725.28;;;-145.06;60.85
6530;BME280;3298;42.688;23.366;2023-02-15T07:31:02;51733.47;;;-145.06;61.16
6530;BME280;3298;42.688;23.366;2023-02-15T07:33:30;51758.03;;;-145.06;60.71
6530;BME280;3298;42.688;23.366;2023-02-15T07:35:58;51723.22;;;-145.06;61.28
6530;BME280;3298;42.688;23.366;2023-02-15T07:38:27;51723.22;;;-145.06;61.11
6530;BME280;3298;42.688;23.366;2023-02-15T07:40:59;51725.28;;;-145.06;61.09
6530;BME280;3298;42.688;23.366;2023-02-15T07:43:26;51733.47;;;-145.06;60.90
6530;BME280;3298;42.688;23.366;2023-02-15T07:45:53;51729.38;;;-145.06;60.29
6530;BME280;3298;42.688;23.366;2023-02-15T07:48:20;51735.50;;;-145.06;59.89
6530;BME280;3298;42.688;23.366;2023-02-15T07:50:47;51727.31;;;-145.06;60.03
6530;BME280;3298;42.688;23.366;2023-02-15T07:53:14;51745.75;;;-145.06;60.46
6530;BME280;3298;42.688;23.366;2023-02-15T07:55:41;51737.56;;;-145.06;59.48
6530;BME280;3298;42.688;23.366;2023-02-15T07:58:09;51745.75;;;-145.06;59.20
6530;BME280;3298;42.688;23.366;2023-02-15T08:00:36;51723.22;;;-145.06;59.33
6530;BME280;3298;42.688;23.366;2023-02-15T08:03:22;51764.16;;;-145.06;59.09
6530;BME280;3298;42.688;23.366;2023-02-15T08:05:55;51764.16;;;-145.06;59.39
6530;BME280;3298;42.688;23.366;2023-02-15T08:08:23;51733.47;;;-145.06;59.50
6530;BME280;3298;42.688;23.366;2023-02-15T08:10:58;51751.88;;;-145.06;60.15
6530;BME280;3298;42.688;23.366;2023-02-15T08:14:00;51741.66;;;-145.06;59.79
6530;BME280;3298;42.688;23.366;2023-02-15T08:16:30;51743.69;;;-145.06;60.21
6530;BME280;3298;42.688;23.366;2023-02-15T08:18:58;51733.47;;;-145.06;60.49
6530;BME280;3298;42.688;23.366;2023-02-15T08:21:27;51745.75;;;-145.06;60.20
6530;BME280;3298;42.688;23.366;2023-02-15T08:23:55;51747.78;;;-145.06;59.54
6530;BME280;3298;42.688;23.366;2023-02-15T08:26:22;51758.03;;;-145.06;59.59
6530;BME280;3298;42.688;23.366;2023-02-15T08:28:50;51725.28;;;-145.06;58.85
6530;BME280;3298;42.688;23.366;2023-02-15T08:31:19;51753.94;;;-145.06;58.72
6530;BME280;3298;42.688;23.366;2023-02-15T08:33:47;51749.84;;;-145.06;58.83
6530;BME280;3298;42.688;23.366;2023-02-15T08:36:16;51749.84;;;-145.06;58.51
6530;BME280;3298;42.688;23.366;2023-02-15T08:38:43;51737.56;;;-145.06;58.56
6530;BME280;3298;42.688;23.366;2023-02-15T08:41:13;51768.25;;;-145.06;59.14
6530;BME280;3298;42.688;23.366;2023-02-15T08:43:40;51737.56;;;-145.06;57.90
6530;BME280;3298;42.688;23.366;2023-02-15T08:46:08;51733.47;;;-145.06;58.07
6530;BME280;3298;42.688;23.366;2023-02-15T08:48:37;51770.31;;;-145.06;57.10
6530;BME280;3298;42.688;23.366;2023-02-15T08:51:05;51745.75;;;-145.06;56.88
6530;BME280;3298;42.688;23.366;2023-02-15T08:53:32;51753.94;;;-145.06;55.97
6530;BME280;3298;42.688;23.366;2023-02-15T08:55:59;51749.84;;;-145.06;56.48
6530;BME280;3298;42.688;23.366;2023-02-15T08:58:26;51733.47;;;-145.06;56.53
6530;BME280;3298;42.688;23.366;2023-02-15T09:00:54;51751.88;;;-145.06;55.93
6530;BME280;3298;42.688;23.366;2023-02-15T09:03:21;51729.38;;;-145.06;55.28
6530;BME280;3298;42.688;23.366;2023-02-15T09:05:49;51731.41;;;-145.06;54.49
6530;BME280;3298;42.688;23.366;2023-02-15T09:08:16;51758.03;;;-145.06;54.32
6530;BME280;3298;42.688;23.366;2023-02-15T09:10:42;51743.69;;;-145.06;53.79
6530;BME280;3298;42.688;23.366;2023-02-15T09:13:09;51770.31;;;-145.06;54.13
6530;BME280;3298;42.688;23.366;2023-02-15T09:15:36;51737.56;;;-145.06;53.79
6530;BME280;3298;42.688;23.366;2023-02-15T09:18:03;51758.03;;;-145.06;54.11
6530;BME280;3298;42.688;23.366;2023-02-15T09:20:31;51735.50;;;-145.06;53.53
6530;BME280;3298;42.688;23.366;2023-02-15T09:23:00;51762.13;;;-145.06;53.20
6530;BME280;3298;42.688;23.366;2023-02-15T09:25:27;51741.66;;;-145.06;53.14
6530;BME280;3298;42.688;23.366;2023-02-15T09:27:53;51713.00;;;-145.06;53.02
6530;BME280;3298;42.688;23.366;2023-02-15T09:30:20;51737.56;;;-145.06;53.11
6530;BME280;3298;42.688;23.366;2023-02-15T09:32:47;51708.91;;;-145.06;53.11
6530;BME280;3298;42.688;23.366;2023-02-15T09:35:14;51762.13;;;-145.06;52.90
6530;BME280;3298;42.688;23.366;2023-02-15T09:37:41;51753.94;;;-145.06;53.30
6530;BME280;3298;42.688;23.366;2023-02-15T09:40:12;51747.78;;;-145.06;53.15
6530;BME280;3298;42.688;23.366;2023-02-15T09:42:57;51725.28;;;-145.06;52.79
6530;BME280;3298;42.688;23.366;2023-02-15T09:45:49;51749.84;;;-145.06;53.02
6530;BME280;3298;42.688;23.366;2023-02-15T09:48:41;51733.47;;;-145.06;51.88
6530;BME280;3298;42.688;23.366;2023-02-15T09:51:36;51727.31;;;-145.06;52.41
6530;BME280;3298;42.688;23.366;2023-02-15T09:54:25;51725.28;;;-145.06;52.07
6530;BME280;3298;42.688;23.366;2023-02-15T09:57:00;51737.56;;;-145.06;51.96
6530;BME280;3298;42.688;23.366;2023-02-15T09:59:37;51721.19;;;-145.06;52.12
6530;BME280;3298;42.688;23.366;2023-02-15T10:02:18;51758.03;;;-145.06;51.93
6530;BME280;3298;42.688;23.366;2023-02-15T10:04:57;51758.03;;;-145.06;51.62
6530;BME280;3298;42.688;23.366;2023-02-15T10:07:42;51755.97;;;-145.06;51.71
6530;BME280;3298;42.688;23.366;2023-02-15T10:10:23;51741.66;;;-145.06;51.33
6530;BME280;3298;42.688;23.366;2023-02-15T10:13:07;51770.31;;;-145.06;51.83
6530;BME280;3298;42.688;23.366;2023-02-15T10:15:53;51729.38;;;-145.06;51.79
6530;BME280;3298;42.688;23.366;2023-02-15T10:18:43;51719.13;;;-145.06;51.41
6530;BME280;3298;42.688;23.366;2023-02-15T10:21:21;51721.19;;;-145.06;51.27
6530;BME280;3298;42.688;23.366;2023-02-15T10:24:16;51753.94;;;-145.06;50.97
6530;BME280;3298;42.688;23.366;2023-02-15T10:26:49;51723.22;;;-145.06;50.50
6530;BME280;3298;42.688;23.366;2023-02-15T10:29:26;51717.09;;;-145.06;50.91
6530;BME280;3298;42.688;23.366;2023-02-15T10:32:03;51784.63;;;-145.06;50.63
6530;BME280;3298;42.688;23.366;2023-02-15T10:34:37;51751.88;;;-145.06;50.22
6530;BME280;3298;42.688;23.366;2023-02-15T10:37:21;51753.94;;;-145.06;50.57
6530;BME280;3298;42.688;23.366;2023-02-15T10:39:59;51747.78;;;-145.06;50.34
6530;BME280;3298;42.688;23.366;2023-02-15T10:42:34;51733.47;;;-145.06;50.08
6530;BME280;3298;42.688;23.366;2023-02-15T10:45:14;51753.94;;;-145.06;50.61
6530;BME280;3298;42.688;23.366;2023-02-15T10:47:56;51737.56;;;-145.06;50.66
6530;BME280;3298;42.688;23.366;2023-02-15T10:50:35;51774.41;;;-145.06;50.91
6530;BME280;3298;42.688;23.366;2023-02-15T10:53:31;51739.59;;;-145.06;50.50
6530;BME280;3298;42.688;23.366;2023-02-15T10:56:10;51737.56;;;-145.06;50.24
6530;BME280;3298;42.688;23.366;2023-02-15T10:58:54;51739.59;;;-145.06;49.89
6530;BME280;3298;42.688;23.366;2023-02-15T11:01:31;51758.03;;;-145.06;50.23
6530;BME280;3298;42.688;23.366;2023-02-15T11:04:24;51739.59;;;-145.06;50.26
6530;BME280;3298;42.688;23.366;2023-02-15T11:06:58;51700.72;;;-145.06;50.27
6530;BME280;3298;42.688;23.366;2023-02-15T11:09:37;51715.03;;;-145.06;49.92
6530;BME280;3298;42.688;23.366;2023-02-15T11:12:09;51727.31;;;-145.06;49.29
6530;BME280;3298;42.688;23.366;2023-02-15T11:14:40;51749.84;;;-145.06;49.20
6530;BME280;3298;42.688;23.366;2023-02-15T11:17:15;51737.56;;;-145.06;48.94
6530;BME280;3298;42.688;23.366;2023-02-15T11:19:56;51727.31;;;-145.06;49.39
6530;BME280;3298;42.688;23.366;2023-02-15T11:22:26;51739.59;;;-145.06;49.20
6530;BME280;3298;42.688;23.366;2023-02-15T11:24:53;51729.38;;;-145.06;49.55
6530;BME280;3298;42.688;23.366;2023-02-15T11:27:25;51755.97;;;-145.06;48.77
6530;BME280;3298;42.688;23.366;2023-02-15T11:29:58;51739.59;;;-145.06;47.38
6530;BME280;3298;42.688;23.366;2023-02-15T11:32:30;51719.13;;;-145.06;46.78
6530;BME280;3298;42.688;23.366;2023-02-15T11:35:02;51733.47;;;-145.06;46.02
6530;BME280;3298;42.688;23.366;2023-02-15T11:37:36;51721.19;;;-145.06;45.40
6530;BME280;3298;42.688;23.366;2023-02-15T11:40:15;51739.59;;;-145.06;44.93
6530;BME280;3298;42.688;23.366;2023-02-15T11:42:45;51729.38;;;-145.06;44.02
6530;BME280;3298;42.688;23.366;2023-02-15T11:45:21;51717.09;;;-145.06;41.73
6530;BME280;3298;42.688;23.366;2023-02-15T11:47:50;51710.94;;;-145.06;38.57
6530;BME280;3298;42.688;23.366;2023-02-15T11:50:21;51790.78;;;-145.06;36.34
6530;BME280;3298;42.688;23.366;2023-02-15T11:52:49;51782.59;;;-145.06;34.27
6530;BME280;3298;42.688;23.366;2023-02-15T11:55:20;51768.25;;;-145.06;36.77
6530;BME280;3298;42.688;23.366;2023-02-15T11:57:53;51745.75;;;-145.06;38.78
6530;BME280;3298;42.688;23.366;2023-02-15T12:00:26;51733.47;;;-145.06;35.27
6530;BME280;3298;42.688;23.366;2023-02-15T12:03:08;51760.06;;;-145.06;39.68
6530;BME280;3298;42.688;23.366;2023-02-15T12:05:40;51725.28;;;-145.06;42.44
6530;BME280;3298;42.688;23.366;2023-02-15T12:08:17;51739.59;;;-145.06;43.32
6530;BME280;3298;42.688;23.366;2023-02-15T12:10:56;51758.03;;;-145.06;43.57
6530;BME280;3298;42.688;23.366;2023-02-15T12:13:24;51743.69;;;-145.06;43.59
6530;BME280;3298;42.688;23.366;2023-02-15T12:15:53;51753.94;;;-145.06;43.29
6530;BME280;3298;42.688;23.366;2023-02-15T12:18:33;51739.59;;;-145.06;42.93
6530;BME280;3298;42.688;23.366;2023-02-15T12:21:03;51729.38;;;-145.06;43.49
6530;BME280;3298;42.688;23.366;2023-02-15T12:23:33;51741.66;;;-145.06;43.79
6530;BME280;3298;42.688;23.366;2023-02-15T12:26:00;51743.69;;;-145.06;43.62
6530;BME280;3298;42.688;23.366;2023-02-15T12:28:32;51755.97;;;-145.06;42.90
6530;BME280;3298;42.688;23.366;2023-02-15T12:31:01;51737.56;;;-145.06;42.99
6530;BME280;3298;42.688;23.366;2023-02-15T12:33:34;51758.03;;;-145.06;43.83
6530;BME280;3298;42.688;23.366;2023-02-15T12:36:05;51731.41;;;-145.06;43.76
6530;BME280;3298;42.688;23.366;2023-02-15T12:38:36;51741.66;;;-145.06;43.74
6530;BME280;3298;42.688;23.366;2023-02-15T12:41:04;51760.06;;;-145.06;43.80
6530;BME280;3298;42.688;23.366;2023-02-15T12:43:34;51758.03;;;-145.06;44.77
6530;BME280;3298;42.688;23.366;2023-02-15T12:46:20;51731.41;;;-145.06;45.38
6530;BME280;3298;42.688;23.366;2023-02-15T12:49:05;51737.56;;;-145.06;45.50
6530;BME280;3298;42.688;23.366;2023-02-15T12:51:42;51762.13;;;-145.06;45.15
6530;BME280;3298;42.688;23.366;2023-02-15T12:54:17;51733.47;;;-145.06;45.39
6530;BME280;3298;42.688;23.366;2023-02-15T12:56:44;51753.94;;;-145.06;45.69
6530;BME280;3298;42.688;23.366;2023-02-15T12:59:13;51739.59;;;-145.06;45.32
6530;BME280;3298;42.688;23.366;2023-02-15T13:01:42;51737.56;;;-145.06;45.45
6530;BME280;3298;42.688;23.366;2023-02-15T13:04:21;51741.66;;;-145.06;45.39
6530;BME280;3298;42.688;23.366;2023-02-15T13:06:51;51770.31;;;-145.06;45.03
6530;BME280;3298;42.688;23.366;2023-02-15T13:09:20;51731.41;;;-145.06;45.26
6530;BME280;3298;42.688;23.366;2023-02-15T13:11:51;51770.31;;;-145.06;45.53
6530;BME280;3298;42.688;23.366;2023-02-15T13:14:20;51733.47;;;-145.06;45.40